sensor_id;sensor_type;location;lat;lon;timestamp;pressure;altitude;pressure_sealevel;temperature
19061;BMP280;9663;48.996;8.334;2022-10-16T00:01:24;100052.47;;;21.62
19061;BMP280;9663;48.996;8.334;2022-10-16T00:03:51;100051.69;;;21.60
19061;BMP280;9663;48.996;8.334;2022-10-16T00:06:20;100065.47;;;21.61
19061;BMP280;9663;48.996;8.334;2022-10-16T00:08:47;100060.38;;;21.59
19061;BMP280;9663;48.996;8.334;2022-10-16T00:11:28;100054.53;;;21.56
19061;BMP280;9663;48.996;8.334;2022-10-16T00:14:01;100051.88;;;21.57
19061;BMP280;9663;48.996;8.334;2022-10-16T00:16:28;100052.78;;;21.56
19061;BMP280;9663;48.996;8.334;2022-10-16T00:18:54;100051.03;;;21.57
19061;BMP280;9663;48.996;8.334;2022-10-16T00:21:24;100049.38;;;21.56
19061;BMP280;9663;48.996;8.334;2022-10-16T00:23:52;100063.19;;;21.55
19061;BMP280;9663;48.996;8.334;2022-10-16T00:26:18;100049.44;;;21.54
19061;BMP280;9663;48.996;8.334;2022-10-16T00:28:51;100051.22;;;21.54
19061;BMP280;9663;48.996;8.334;2022-10-16T00:31:20;100052.09;;;21.53
19061;BMP280;9663;48.996;8.334;2022-10-16T00:33:47;100049.53;;;21.53
19061;BMP280;9663;48.996;8.334;2022-10-16T00:36:17;100051.22;;;21.54
19061;BMP280;9663;48.996;8.334;2022-10-16T00:38:43;100058.16;;;21.52
19061;BMP280;9663;48.996;8.334;2022-10-16T00:41:16;100048.78;;;21.51
19061;BMP280;9663;48.996;8.334;2022-10-16T00:43:58;100048.78;;;21.51
19061;BMP280;9663;48.996;8.334;2022-10-16T00:46:50;100049.00;;;21.46
19061;BMP280;9663;48.996;8.334;2022-10-16T00:49:18;100046.19;;;21.51
19061;BMP280;9663;48.996;8.334;2022-10-16T00:51:50;100044.44;;;21.51
19061;BMP280;9663;48.996;8.334;2022-10-16T00:54:21;100058.94;;;21.54
19061;BMP280;9663;48.996;8.334;2022-10-16T00:56:49;100061.53;;;21.54
19061;BMP280;9663;48.996;8.334;2022-10-16T00:59:23;100070.91;;;21.55
19061;BMP280;9663;48.996;8.334;2022-10-16T01:01:51;100080.41;;;21.54
19061;BMP280;9663;48.996;8.334;2022-10-16T01:04:17;100070.09;;;21.54
19061;BMP280;9663;48.996;8.334;2022-10-16T01:07:14;100078.81;;;21.52
19061;BMP280;9663;48.996;8.334;2022-10-16T01:10:03;100075.63;;;21.47
19061;BMP280;9663;48.996;8.334;2022-10-16T01:12:58;100073.97;;;21.46
19061;BMP280;9663;48.996;8.334;2022-10-16T01:15:37;100069.72;;;21.45
19061;BMP280;9663;48.996;8.334;2022-10-16T01:21:01;100079.22;;;21.44
19061;BMP280;9663;48.996;8.334;2022-10-16T01:29:42;100073.22;;;21.44
19061;BMP280;9663;48.996;8.334;2022-10-16T01:32:38;100068.91;;;21.44
19061;BMP280;9663;48.996;8.334;2022-10-16T01:35:10;100061.75;;;21.49
19061;BMP280;9663;48.996;8.334;2022-10-16T01:38:29;100058.50;;;21.46
19061;BMP280;9663;48.996;8.334;2022-10-16T01:41:06;100065.31;;;21.47
19061;BMP280;9663;48.996;8.334;2022-10-16T01:46:30;100057.50;;;21.48
19061;BMP280;9663;48.996;8.334;2022-10-16T01:48:57;100054.00;;;21.49
19061;BMP280;9663;48.996;8.334;2022-10-16T01:51:26;100053.19;;;21.49
19061;BMP280;9663;48.996;8.334;2022-10-16T01:53:57;100056.59;;;21.49
19061;BMP280;9663;48.996;8.334;2022-10-16T01:56:25;100061.75;;;21.49
19061;BMP280;9663;48.996;8.334;2022-10-16T01:59:12;100064.50;;;21.46
19061;BMP280;9663;48.996;8.334;2022-10-16T02:01:42;100057.56;;;21.47
19061;BMP280;9663;48.996;8.334;2022-10-16T02:04:30;100063.94;;;21.40
19061;BMP280;9663;48.996;8.334;2022-10-16T02:06:57;100069.25;;;21.37
19061;BMP280;9663;48.996;8.334;2022-10-16T02:09:23;100070.31;;;21.33
19061;BMP280;9663;48.996;8.334;2022-10-16T02:11:52;100081.59;;;21.31
19061;BMP280;9663;48.996;8.334;2022-10-16T02:14:19;100079.28;;;21.26
19061;BMP280;9663;48.996;8.334;2022-10-16T02:16:47;100076.03;;;21.23
19061;BMP280;9663;48.996;8.334;2022-10-16T02:19:14;100082.06;;;21.22
19061;BMP280;9663;48.996;8.334;2022-10-16T02:21:56;100085.72;;;21.18
19061;BMP280;9663;48.996;8.334;2022-10-16T02:24:37;100071.38;;;21.12
19061;BMP280;9663;48.996;8.334;2022-10-16T02:27:27;100087.00;;;21.09
19061;BMP280;9663;48.996;8.334;2022-10-16T02:30:15;100093.84;;;21.10
19061;BMP280;9663;48.996;8.334;2022-10-16T02:32:44;100096.41;;;21.10
19061;BMP280;9663;48.996;8.334;2022-10-16T02:35:13;100086.16;;;21.09
19061;BMP280;9663;48.996;8.334;2022-10-16T02:37:41;100092.22;;;21.08
19061;BMP280;9663;48.996;8.334;2022-10-16T02:40:08;100088.81;;;21.07
19061;BMP280;9663;48.996;8.334;2022-10-16T02:42:40;100085.34;;;21.08
19061;BMP280;9663;48.996;8.334;2022-10-16T02:45:08;100076.84;;;21.06
19061;BMP280;9663;48.996;8.334;2022-10-16T02:47:34;100085.41;;;21.07
19061;BMP280;9663;48.996;8.334;2022-10-16T02:50:00;100078.50;;;21.07
19061;BMP280;9663;48.996;8.334;2022-10-16T02:52:26;100090.56;;;21.07
19061;BMP280;9663;48.996;8.334;2022-10-16T02:54:52;100098.31;;;21.07
19061;BMP280;9663;48.996;8.334;2022-10-16T02:57:18;100100.06;;;21.06
19061;BMP280;9663;48.996;8.334;2022-10-16T02:59:44;100103.47;;;21.07
19061;BMP280;9663;48.996;8.334;2022-10-16T03:02:10;100103.38;;;21.08
19061;BMP280;9663;48.996;8.334;2022-10-16T03:04:37;100107.78;;;21.06
19061;BMP280;9663;48.996;8.334;2022-10-16T03:07:03;100117.25;;;21.06
19061;BMP280;9663;48.996;8.334;2022-10-16T03:09:29;100113.84;;;21.05
19061;BMP280;9663;48.996;8.334;2022-10-16T03:11:54;100107.19;;;21.01
19061;BMP280;9663;48.996;8.334;2022-10-16T03:14:20;100110.53;;;21.03
19061;BMP280;9663;48.996;8.334;2022-10-16T03:16:46;100107.19;;;21.01
19061;BMP280;9663;48.996;8.334;2022-10-16T03:19:12;100102.09;;;21.00
19061;BMP280;9663;48.996;8.334;2022-10-16T03:21:38;100101.16;;;21.01
19061;BMP280;9663;48.996;8.334;2022-10-16T03:24:04;100101.25;;;20.99
19061;BMP280;9663;48.996;8.334;2022-10-16T03:26:29;100102.91;;;21.00
19061;BMP280;9663;48.996;8.334;2022-10-16T03:28:55;100091.78;;;21.00
19061;BMP280;9663;48.996;8.334;2022-10-16T03:31:21;100101.25;;;20.99
19061;BMP280;9663;48.996;8.334;2022-10-16T03:33:47;100106.41;;;20.99
19061;BMP280;9663;48.996;8.334;2022-10-16T03:36:13;100102.09;;;21.00
19061;BMP280;9663;48.996;8.334;2022-10-16T03:38:38;100110.66;;;21.00
19061;BMP280;9663;48.996;8.334;2022-10-16T03:41:04;100108.06;;;21.00
19061;BMP280;9663;48.996;8.334;2022-10-16T03:43:30;100114.91;;;21.01
19061;BMP280;9663;48.996;8.334;2022-10-16T03:45:55;100111.41;;;21.02
19061;BMP280;9663;48.996;8.334;2022-10-16T03:48:21;100107.06;;;21.03
19061;BMP280;9663;48.996;8.334;2022-10-16T03:50:47;100113.09;;;21.03
19061;BMP280;9663;48.996;8.334;2022-10-16T03:53:14;100101.84;;;21.04
19061;BMP280;9663;48.996;8.334;2022-10-16T03:55:43;100099.28;;;21.04
19061;BMP280;9663;48.996;8.334;2022-10-16T03:58:10;100111.28;;;21.05
19061;BMP280;9663;48.996;8.334;2022-10-16T04:00:40;100117.19;;;21.07
19061;BMP280;9663;48.996;8.334;2022-10-16T04:03:06;100114.59;;;21.07
19061;BMP280;9663;48.996;8.334;2022-10-16T04:05:31;100112.03;;;21.07
19061;BMP280;9663;48.996;8.334;2022-10-16T04:07:57;100105.91;;;21.10
19061;BMP280;9663;48.996;8.334;2022-10-16T04:10:22;100110.91;;;21.13
19061;BMP280;9663;48.996;8.334;2022-10-16T04:12:48;100115.97;;;21.14
19061;BMP280;9663;48.996;8.334;2022-10-16T04:15:14;100115.00;;;21.17
19061;BMP280;9663;48.996;8.334;2022-10-16T04:17:39;100122.66;;;21.18
19061;BMP280;9663;48.996;8.334;2022-10-16T04:20:06;100131.22;;;21.19
19061;BMP280;9663;48.996;8.334;2022-10-16T04:22:31;100124.25;;;21.21
19061;BMP280;9663;48.996;8.334;2022-10-16T04:24:57;100120.84;;;21.20
19061;BMP280;9663;48.996;8.334;2022-10-16T04:27:23;100133.59;;;21.23
19061;BMP280;9663;48.996;8.334;2022-10-16T04:29:48;100144.72;;;21.24
19061;BMP280;9663;48.996;8.334;2022-10-16T04:32:14;100140.41;;;21.24
19061;BMP280;9663;48.996;8.334;2022-10-16T04:34:40;100139.56;;;21.24
19061;BMP280;9663;48.996;8.334;2022-10-16T04:37:06;100140.41;;;21.24
19061;BMP280;9663;48.996;8.334;2022-10-16T04:39:31;100143.84;;;21.25
19061;BMP280;9663;48.996;8.334;2022-10-16T04:41:57;100149.06;;;21.23
19061;BMP280;9663;48.996;8.334;2022-10-16T04:44:23;100150.81;;;21.23
19061;BMP280;9663;48.996;8.334;2022-10-16T04:46:50;100148.25;;;21.23
19061;BMP280;9663;48.996;8.334;2022-10-16T04:49:17;100149.06;;;21.23
19061;BMP280;9663;48.996;8.334;2022-10-16T04:51:42;100140.50;;;21.23
19061;BMP280;9663;48.996;8.334;2022-10-16T04:54:09;100143.84;;;21.25
19061;BMP280;9663;48.996;8.334;2022-10-16T04:56:35;100142.06;;;21.25
19061;BMP280;9663;48.996;8.334;2022-10-16T04:59:09;100154.00;;;21.28
19061;BMP280;9663;48.996;8.334;2022-10-16T05:01:35;100159.25;;;21.26
19061;BMP280;9663;48.996;8.334;2022-10-16T05:04:01;100144.50;;;21.28
19061;BMP280;9663;48.996;8.334;2022-10-16T05:06:27;100161.63;;;21.29
19061;BMP280;9663;48.996;8.334;2022-10-16T05:08:52;100162.50;;;21.30
19061;BMP280;9663;48.996;8.334;2022-10-16T05:11:18;100156.41;;;21.31
19061;BMP280;9663;48.996;8.334;2022-10-16T05:13:44;100148.84;;;21.28
19061;BMP280;9663;48.996;8.334;2022-10-16T05:16:09;100152.19;;;21.30
19061;BMP280;9663;48.996;8.334;2022-10-16T05:18:35;100155.66;;;21.29
19061;BMP280;9663;48.996;8.334;2022-10-16T05:21:01;100160.00;;;21.28
19061;BMP280;9663;48.996;8.334;2022-10-16T05:23:26;100155.72;;;21.27
19061;BMP280;9663;48.996;8.334;2022-10-16T05:25:57;100160.00;;;21.28
19061;BMP280;9663;48.996;8.334;2022-10-16T05:28:26;100158.38;;;21.26
19061;BMP280;9663;48.996;8.334;2022-10-16T05:30:52;100167.88;;;21.25
19061;BMP280;9663;48.996;8.334;2022-10-16T05:33:20;100158.44;;;21.24
19061;BMP280;9663;48.996;8.334;2022-10-16T05:35:46;100167.94;;;21.24
19061;BMP280;9663;48.996;8.334;2022-10-16T05:38:13;100174.84;;;21.23
19061;BMP280;9663;48.996;8.334;2022-10-16T05:40:39;100172.28;;;21.23
19061;BMP280;9663;48.996;8.334;2022-10-16T05:43:05;100170.59;;;21.22
19061;BMP280;9663;48.996;8.334;2022-10-16T05:45:30;100180.09;;;21.22
19061;BMP280;9663;48.996;8.334;2022-10-16T05:47:56;100180.16;;;21.20
19061;BMP280;9663;48.996;8.334;2022-10-16T05:50:22;100173.31;;;21.19
19061;BMP280;9663;48.996;8.334;2022-10-16T05:52:47;100169.00;;;21.20
19061;BMP280;9663;48.996;8.334;2022-10-16T05:55:13;100167.41;;;21.17
19061;BMP280;9663;48.996;8.334;2022-10-16T05:57:39;100165.81;;;21.15
19061;BMP280;9663;48.996;8.334;2022-10-16T06:00:05;100161.63;;;21.12
19061;BMP280;9663;48.996;8.334;2022-10-16T06:02:31;100160.06;;;21.10
19061;BMP280;9663;48.996;8.334;2022-10-16T06:04:57;100168.75;;;21.07
19061;BMP280;9663;48.996;8.334;2022-10-16T06:07:23;100178.31;;;21.05
19061;BMP280;9663;48.996;8.334;2022-10-16T06:09:53;100192.09;;;21.04
19061;BMP280;9663;48.996;8.334;2022-10-16T06:12:19;100202.59;;;21.01
19061;BMP280;9663;48.996;8.334;2022-10-16T06:14:46;100197.56;;;20.99
19061;BMP280;9663;48.996;8.334;2022-10-16T06:17:14;100180.41;;;20.98
19061;BMP280;9663;48.996;8.334;2022-10-16T06:19:40;100179.53;;;20.99
19061;BMP280;9663;48.996;8.334;2022-10-16T06:22:06;100178.59;;;20.99
19061;BMP280;9663;48.996;8.334;2022-10-16T06:24:32;100188.00;;;21.00
19061;BMP280;9663;48.996;8.334;2022-10-16T06:26:58;100186.19;;;21.02
19061;BMP280;9663;48.996;8.334;2022-10-16T06:29:23;100185.22;;;21.05
19061;BMP280;9663;48.996;8.334;2022-10-16T06:31:49;100180.00;;;21.06
19061;BMP280;9663;48.996;8.334;2022-10-16T06:34:15;100202.13;;;21.10
19061;BMP280;9663;48.996;8.334;2022-10-16T06:36:41;100197.81;;;21.11
19061;BMP280;9663;48.996;8.334;2022-10-16T06:39:08;100198.50;;;21.14
19061;BMP280;9663;48.996;8.334;2022-10-16T06:41:35;100205.34;;;21.15
19061;BMP280;9663;48.996;8.334;2022-10-16T06:44:01;100217.16;;;21.19
19061;BMP280;9663;48.996;8.334;2022-10-16T06:46:30;100204.19;;;21.21
19061;BMP280;9663;48.996;8.334;2022-10-16T06:48:56;100198.06;;;21.23
19061;BMP280;9663;48.996;8.334;2022-10-16T06:51:24;100192.59;;;21.29
19061;BMP280;9663;48.996;8.334;2022-10-16T06:53:53;100194.13;;;21.33
19061;BMP280;9663;48.996;8.334;2022-10-16T06:56:25;100197.31;;;21.38
19061;BMP280;9663;48.996;8.334;2022-10-16T06:58:53;100197.97;;;21.43
19061;BMP280;9663;48.996;8.334;2022-10-16T07:01:21;100203.00;;;21.46
19061;BMP280;9663;48.996;8.334;2022-10-16T07:03:49;100213.91;;;21.51
19061;BMP280;9663;48.996;8.334;2022-10-16T07:06:20;100217.94;;;21.56
19061;BMP280;9663;48.996;8.334;2022-10-16T07:08:47;100213.38;;;21.61
19061;BMP280;9663;48.996;8.334;2022-10-16T07:11:21;100221.66;;;21.68
19061;BMP280;9663;48.996;8.334;2022-10-16T07:13:49;100217.09;;;21.73
19061;BMP280;9663;48.996;8.334;2022-10-16T07:16:19;100225.47;;;21.78
19061;BMP280;9663;48.996;8.334;2022-10-16T07:18:47;100241.53;;;21.83
19061;BMP280;9663;48.996;8.334;2022-10-16T07:21:18;100243.06;;;21.86
19061;BMP280;9663;48.996;8.334;2022-10-16T07:23:45;100248.81;;;21.91
19061;BMP280;9663;48.996;8.334;2022-10-16T07:26:13;100247.63;;;21.98
19061;BMP280;9663;48.996;8.334;2022-10-16T07:28:44;100256.81;;;22.04
19061;BMP280;9663;48.996;8.334;2022-10-16T07:31:15;100258.41;;;22.06
19061;BMP280;9663;48.996;8.334;2022-10-16T07:33:44;100262.56;;;22.09
19061;BMP280;9663;48.996;8.334;2022-10-16T07:36:12;100261.50;;;22.13
19061;BMP280;9663;48.996;8.334;2022-10-16T07:38:39;100252.69;;;22.17
19061;BMP280;9663;48.996;8.334;2022-10-16T07:41:10;100255.69;;;22.26
19061;BMP280;9663;48.996;8.334;2022-10-16T07:43:36;100265.69;;;22.32
19061;BMP280;9663;48.996;8.334;2022-10-16T07:46:03;100272.19;;;22.39
19061;BMP280;9663;48.996;8.334;2022-10-16T07:48:32;100285.56;;;22.47
19061;BMP280;9663;48.996;8.334;2022-10-16T07:51:05;100281.00;;;22.52
19061;BMP280;9663;48.996;8.334;2022-10-16T07:53:31;100285.09;;;22.56
19061;BMP280;9663;48.996;8.334;2022-10-16T07:56:04;100291.69;;;22.61
19061;BMP280;9663;48.996;8.334;2022-10-16T07:58:35;100295.03;;;22.63
19061;BMP280;9663;48.996;8.334;2022-10-16T08:01:09;100285.44;;;22.65
19061;BMP280;9663;48.996;8.334;2022-10-16T08:03:36;100288.03;;;22.65
19061;BMP280;9663;48.996;8.334;2022-10-16T08:06:02;100280.13;;;22.68
19061;BMP280;9663;48.996;8.334;2022-10-16T08:08:29;100279.06;;;22.72
19061;BMP280;9663;48.996;8.334;2022-10-16T08:10:56;100282.16;;;22.78
19061;BMP280;9663;48.996;8.334;2022-10-16T08:13:21;100282.66;;;22.85
19061;BMP280;9663;48.996;8.334;2022-10-16T08:15:47;100278.91;;;22.90
19061;BMP280;9663;48.996;8.334;2022-10-16T08:18:15;100267.25;;;22.99
19061;BMP280;9663;48.996;8.334;2022-10-16T08:20:42;100276.94;;;23.11
19061;BMP280;9663;48.996;8.334;2022-10-16T08:23:11;100267.81;;;23.19
19061;BMP280;9663;48.996;8.334;2022-10-16T08:25:38;100270.75;;;23.28
19061;BMP280;9663;48.996;8.334;2022-10-16T08:28:08;100293.72;;;23.34
19061;BMP280;9663;48.996;8.334;2022-10-16T08:30:35;100291.78;;;23.38
19061;BMP280;9663;48.996;8.334;2022-10-16T08:33:02;100292.28;;;23.44
19061;BMP280;9663;48.996;8.334;2022-10-16T08:35:29;100308.31;;;23.51
19061;BMP280;9663;48.996;8.334;2022-10-16T08:37:55;100309.47;;;23.60
19061;BMP280;9663;48.996;8.334;2022-10-16T08:40:27;100307.03;;;23.73
19061;BMP280;9663;48.996;8.334;2022-10-16T08:46:30;100325.41;;;23.84
19061;BMP280;9663;48.996;8.334;2022-10-16T08:48:59;100324.13;;;23.91
19061;BMP280;9663;48.996;8.334;2022-10-16T08:51:35;100325.53;;;23.96
19061;BMP280;9663;48.996;8.334;2022-10-16T08:54:28;100337.97;;;24.05
19061;BMP280;9663;48.996;8.334;2022-10-16T08:57:09;100329.66;;;24.14
19061;BMP280;9663;48.996;8.334;2022-10-16T08:59:36;100336.91;;;24.23
19061;BMP280;9663;48.996;8.334;2022-10-16T09:02:18;100337.34;;;24.31
19061;BMP280;9663;48.996;8.334;2022-10-16T09:07:51;100348.28;;;24.36
19061;BMP280;9663;48.996;8.334;2022-10-16T09:10:41;100350.00;;;24.35
19061;BMP280;9663;48.996;8.334;2022-10-16T09:16:22;100366.66;;;24.31
19061;BMP280;9663;48.996;8.334;2022-10-16T09:21:38;100370.19;;;24.30
19061;BMP280;9663;48.996;8.334;2022-10-16T09:24:17;100363.31;;;24.29
19061;BMP280;9663;48.996;8.334;2022-10-16T09:26:45;100371.16;;;24.28
19061;BMP280;9663;48.996;8.334;2022-10-16T09:29:20;100376.44;;;24.26
19061;BMP280;9663;48.996;8.334;2022-10-16T09:31:47;100387.06;;;24.22
19061;BMP280;9663;48.996;8.334;2022-10-16T09:34:36;100379.47;;;24.19
19061;BMP280;9663;48.996;8.334;2022-10-16T09:37:10;100389.31;;;24.28
19061;BMP280;9663;48.996;8.334;2022-10-16T09:39:52;100386.03;;;24.40
19061;BMP280;9663;48.996;8.334;2022-10-16T09:42:31;100391.22;;;24.53
19061;BMP280;9663;48.996;8.334;2022-10-16T09:44:58;100392.75;;;24.71
19061;BMP280;9663;48.996;8.334;2022-10-16T09:47:29;100386.38;;;24.90
19061;BMP280;9663;48.996;8.334;2022-10-16T09:50:01;100391.88;;;25.14
19061;BMP280;9663;48.996;8.334;2022-10-16T09:52:30;100390.75;;;25.32
19061;BMP280;9663;48.996;8.334;2022-10-16T09:55:12;100391.03;;;25.41
19061;BMP280;9663;48.996;8.334;2022-10-16T09:57:49;100395.81;;;25.47
19061;BMP280;9663;48.996;8.334;2022-10-16T10:00:51;100398.41;;;25.47
19061;BMP280;9663;48.996;8.334;2022-10-16T10:06:26;100404.91;;;25.68
19061;BMP280;9663;48.996;8.334;2022-10-16T10:12:01;100413.78;;;25.77
19061;BMP280;9663;48.996;8.334;2022-10-16T10:14:47;100409.22;;;25.81
19061;BMP280;9663;48.996;8.334;2022-10-16T10:17:26;100405.31;;;25.88
19061;BMP280;9663;48.996;8.334;2022-10-16T10:19:59;100405.84;;;25.93
19061;BMP280;9663;48.996;8.334;2022-10-16T10:22:40;100402.31;;;25.94
19061;BMP280;9663;48.996;8.334;2022-10-16T10:25:15;100412.69;;;25.94
19061;BMP280;9663;48.996;8.334;2022-10-16T10:27:59;100411.78;;;25.95
19061;BMP280;9663;48.996;8.334;2022-10-16T10:30:57;100410.63;;;25.99
19061;BMP280;9663;48.996;8.334;2022-10-16T10:39:08;100401.88;;;26.64
19061;BMP280;9663;48.996;8.334;2022-10-16T10:42:00;100385.06;;;26.95
19061;BMP280;9663;48.996;8.334;2022-10-16T10:44:56;100383.75;;;27.25
19061;BMP280;9663;48.996;8.334;2022-10-16T10:50:45;100403.53;;;27.52
19061;BMP280;9663;48.996;8.334;2022-10-16T10:53:51;100399.31;;;27.62
19061;BMP280;9663;48.996;8.334;2022-10-16T10:56:57;100407.66;;;27.67
19061;BMP280;9663;48.996;8.334;2022-10-16T11:02:37;100399.13;;;27.65
19061;BMP280;9663;48.996;8.334;2022-10-16T11:08:28;100398.72;;;27.82
19061;BMP280;9663;48.996;8.334;2022-10-16T11:11:11;100399.25;;;27.97
19061;BMP280;9663;48.996;8.334;2022-10-16T11:14:40;100406.63;;;28.16
19061;BMP280;9663;48.996;8.334;2022-10-16T11:17:23;100399.03;;;28.47
19061;BMP280;9663;48.996;8.334;2022-10-16T11:20:11;100396.19;;;28.61
19061;BMP280;9663;48.996;8.334;2022-10-16T11:22:43;100391.41;;;28.78
19061;BMP280;9663;48.996;8.334;2022-10-16T11:30:34;100381.78;;;29.00
19061;BMP280;9663;48.996;8.334;2022-10-16T11:33:33;100377.53;;;28.99
19061;BMP280;9663;48.996;8.334;2022-10-16T11:36:26;100374.31;;;28.96
19061;BMP280;9663;48.996;8.334;2022-10-16T11:42:11;100363.88;;;28.85
19061;BMP280;9663;48.996;8.334;2022-10-16T11:45:07;100369.69;;;28.88
19061;BMP280;9663;48.996;8.334;2022-10-16T11:47:50;100376.22;;;29.05
19061;BMP280;9663;48.996;8.334;2022-10-16T11:55:49;100365.28;;;30.48
19061;BMP280;9663;48.996;8.334;2022-10-16T11:58:29;100368.75;;;31.28
19061;BMP280;9663;48.996;8.334;2022-10-16T12:07:08;100362.34;;;31.11
19061;BMP280;9663;48.996;8.334;2022-10-16T12:09:39;100367.09;;;30.97
19061;BMP280;9663;48.996;8.334;2022-10-16T12:15:26;100368.78;;;30.58
19061;BMP280;9663;48.996;8.334;2022-10-16T12:17:53;100369.94;;;30.44
19061;BMP280;9663;48.996;8.334;2022-10-16T12:20:28;100374.06;;;30.26
19061;BMP280;9663;48.996;8.334;2022-10-16T12:23:06;100361.75;;;30.17
19061;BMP280;9663;48.996;8.334;2022-10-16T12:25:38;100358.56;;;30.14
19061;BMP280;9663;48.996;8.334;2022-10-16T12:28:21;100353.75;;;29.99
19061;BMP280;9663;48.996;8.334;2022-10-16T12:30:57;100359.03;;;29.88
19061;BMP280;9663;48.996;8.334;2022-10-16T12:33:27;100349.75;;;29.84
19061;BMP280;9663;48.996;8.334;2022-10-16T12:35:54;100355.97;;;29.83
19061;BMP280;9663;48.996;8.334;2022-10-16T12:38:49;100359.41;;;29.72
19061;BMP280;9663;48.996;8.334;2022-10-16T12:41:33;100363.00;;;29.61
19061;BMP280;9663;48.996;8.334;2022-10-16T12:44:01;100358.53;;;29.52
19061;BMP280;9663;48.996;8.334;2022-10-16T12:49:21;100360.81;;;29.34
19061;BMP280;9663;48.996;8.334;2022-10-16T12:51:47;100367.34;;;29.29
19061;BMP280;9663;48.996;8.334;2022-10-16T13:00:04;100369.00;;;28.86
19061;BMP280;9663;48.996;8.334;2022-10-16T13:05:38;100371.63;;;28.52
19061;BMP280;9663;48.996;8.334;2022-10-16T13:14:46;100377.41;;;27.88
19061;BMP280;9663;48.996;8.334;2022-10-16T13:20:34;100380.63;;;27.68
19061;BMP280;9663;48.996;8.334;2022-10-16T13:23:15;100377.19;;;27.67
19061;BMP280;9663;48.996;8.334;2022-10-16T13:28:34;100370.16;;;27.57
19061;BMP280;9663;48.996;8.334;2022-10-16T13:31:02;100358.28;;;27.53
19061;BMP280;9663;48.996;8.334;2022-10-16T13:33:41;100365.06;;;27.43
19061;BMP280;9663;48.996;8.334;2022-10-16T13:36:33;100358.84;;;27.33
19061;BMP280;9663;48.996;8.334;2022-10-16T13:39:26;100355.94;;;27.25
19061;BMP280;9663;48.996;8.334;2022-10-16T13:42:05;100364.00;;;27.22
19061;BMP280;9663;48.996;8.334;2022-10-16T13:44:41;100366.09;;;27.17
19061;BMP280;9663;48.996;8.334;2022-10-16T13:47:23;100361.28;;;27.11
19061;BMP280;9663;48.996;8.334;2022-10-16T13:50:17;100368.06;;;27.02
19061;BMP280;9663;48.996;8.334;2022-10-16T13:52:44;100364.84;;;26.98
19061;BMP280;9663;48.996;8.334;2022-10-16T13:55:15;100368.69;;;26.93
19061;BMP280;9663;48.996;8.334;2022-10-16T13:57:42;100368.06;;;26.89
19061;BMP280;9663;48.996;8.334;2022-10-16T14:00:24;100358.19;;;26.82
19061;BMP280;9663;48.996;8.334;2022-10-16T14:03:02;100367.09;;;26.78
19061;BMP280;9663;48.996;8.334;2022-10-16T14:05:28;100374.28;;;26.74
19061;BMP280;9663;48.996;8.334;2022-10-16T14:07:56;100385.84;;;26.70
19061;BMP280;9663;48.996;8.334;2022-10-16T14:10:31;100375.03;;;26.64
19061;BMP280;9663;48.996;8.334;2022-10-16T14:13:04;100375.13;;;26.63
19061;BMP280;9663;48.996;8.334;2022-10-16T14:15:33;100375.97;;;26.63
19061;BMP280;9663;48.996;8.334;2022-10-16T14:18:00;100378.16;;;26.69
19061;BMP280;9663;48.996;8.334;2022-10-16T14:20:33;100373.78;;;26.82
19061;BMP280;9663;48.996;8.334;2022-10-16T14:23:28;100371.72;;;26.99
19061;BMP280;9663;48.996;8.334;2022-10-16T14:28:39;100362.00;;;27.61
19061;BMP280;9663;48.996;8.334;2022-10-16T14:31:34;100357.31;;;27.90
19061;BMP280;9663;48.996;8.334;2022-10-16T14:34:02;100355.09;;;28.19
19061;BMP280;9663;48.996;8.334;2022-10-16T14:36:29;100367.34;;;28.51
19061;BMP280;9663;48.996;8.334;2022-10-16T14:39:15;100365.31;;;29.22
19061;BMP280;9663;48.996;8.334;2022-10-16T14:41:47;100359.00;;;30.19
19061;BMP280;9663;48.996;8.334;2022-10-16T14:44:15;100349.50;;;30.99
19061;BMP280;9663;48.996;8.334;2022-10-16T14:46:44;100347.72;;;31.57
19061;BMP280;9663;48.996;8.334;2022-10-16T14:51:38;100345.66;;;32.36
19061;BMP280;9663;48.996;8.334;2022-10-16T14:54:09;100341.38;;;32.63
19061;BMP280;9663;48.996;8.334;2022-10-16T14:56:57;100346.16;;;32.77
19061;BMP280;9663;48.996;8.334;2022-10-16T14:59:37;100338.84;;;32.71
19061;BMP280;9663;48.996;8.334;2022-10-16T15:04:48;100351.38;;;32.13
19061;BMP280;9663;48.996;8.334;2022-10-16T15:07:14;100351.88;;;31.79
19061;BMP280;9663;48.996;8.334;2022-10-16T15:09:40;100354.75;;;31.47
19061;BMP280;9663;48.996;8.334;2022-10-16T15:12:06;100348.00;;;31.15
19061;BMP280;9663;48.996;8.334;2022-10-16T15:14:31;100351.50;;;30.86
19061;BMP280;9663;48.996;8.334;2022-10-16T15:16:57;100358.19;;;30.59
19061;BMP280;9663;48.996;8.334;2022-10-16T15:19:23;100361.09;;;30.36
19061;BMP280;9663;48.996;8.334;2022-10-16T15:21:49;100364.63;;;30.14
19061;BMP280;9663;48.996;8.334;2022-10-16T15:24:15;100362.09;;;29.93
19061;BMP280;9663;48.996;8.334;2022-10-16T15:26:41;100363.47;;;29.76
19061;BMP280;9663;48.996;8.334;2022-10-16T15:29:07;100356.84;;;29.62
19061;BMP280;9663;48.996;8.334;2022-10-16T15:31:33;100352.94;;;29.45
19061;BMP280;9663;48.996;8.334;2022-10-16T15:33:59;100355.34;;;29.27
19061;BMP280;9663;48.996;8.334;2022-10-16T15:36:33;100356.88;;;29.07
19061;BMP280;9663;48.996;8.334;2022-10-16T15:39:12;100355.81;;;28.88
19061;BMP280;9663;48.996;8.334;2022-10-16T15:41:37;100356.53;;;28.68
19061;BMP280;9663;48.996;8.334;2022-10-16T15:44:03;100365.50;;;28.53
19061;BMP280;9663;48.996;8.334;2022-10-16T15:46:29;100371.72;;;28.40
19061;BMP280;9663;48.996;8.334;2022-10-16T15:48:57;100367.53;;;28.27
19061;BMP280;9663;48.996;8.334;2022-10-16T15:51:24;100377.09;;;28.15
19061;BMP280;9663;48.996;8.334;2022-10-16T15:53:52;100370.03;;;28.05
19061;BMP280;9663;48.996;8.334;2022-10-16T15:56:19;100379.16;;;27.99
19061;BMP280;9663;48.996;8.334;2022-10-16T15:58:45;100379.69;;;27.92
19061;BMP280;9663;48.996;8.334;2022-10-16T16:01:11;100387.25;;;27.84
19061;BMP280;9663;48.996;8.334;2022-10-16T16:03:38;100377.69;;;27.72
19061;BMP280;9663;48.996;8.334;2022-10-16T16:06:11;100383.59;;;27.63
19061;BMP280;9663;48.996;8.334;2022-10-16T16:08:38;100371.91;;;27.56
19061;BMP280;9663;48.996;8.334;2022-10-16T16:11:06;100371.84;;;27.46
19061;BMP280;9663;48.996;8.334;2022-10-16T16:13:32;100380.63;;;27.32
19061;BMP280;9663;48.996;8.334;2022-10-16T16:15:59;100376.59;;;27.16